createdAt,value
2022-10-18T00:01:38.629Z,13.33
2022-10-18T00:04:05.391Z,13.35
2022-10-18T00:06:32.034Z,13.37
2022-10-18T00:08:58.634Z,13.38
2022-10-18T00:11:25.308Z,13.37
2022-10-18T00:13:51.915Z,13.38
2022-10-18T00:16:19.213Z,13.41
2022-10-18T00:18:48.047Z,13.40
2022-10-18T00:21:17.976Z,13.42
2022-10-18T00:23:45.662Z,13.43
2022-10-18T00:26:18.639Z,13.45
2022-10-18T00:28:46.073Z,13.42
2022-10-18T00:31:21.570Z,13.41
2022-10-18T00:33:51.390Z,13.40
2022-10-18T00:36:18.799Z,13.39
2022-10-18T00:38:46.177Z,13.37
2022-10-18T00:41:17.876Z,13.41
2022-10-18T00:44:04.847Z,13.41
2022-10-18T00:46:36.607Z,13.38
2022-10-18T00:49:08.355Z,13.35
2022-10-18T00:51:41.721Z,13.35
2022-10-18T00:54:08.619Z,13.33
2022-10-18T00:56:36.027Z,13.32
2022-10-18T00:59:03.212Z,13.33
2022-10-18T01:01:29.946Z,13.32
2022-10-18T01:03:57.898Z,13.30
2022-10-18T01:06:26.118Z,13.30
2022-10-18T01:09:04.324Z,13.27
2022-10-18T01:11:34.017Z,13.26
2022-10-18T01:14:00.534Z,13.26
2022-10-18T01:16:30.231Z,13.25
2022-10-18T01:19:00.276Z,13.22
2022-10-18T01:21:35.730Z,13.23
2022-10-18T01:24:15.139Z,13.23
2022-10-18T01:27:09.601Z,13.22
2022-10-18T01:29:51.423Z,13.23
2022-10-18T01:32:32.735Z,13.22
2022-10-18T01:35:05.139Z,13.21
2022-10-18T01:37:34.359Z,13.20
2022-10-18T01:40:06.711Z,13.23
2022-10-18T01:42:34.260Z,13.25
2022-10-18T01:45:03.146Z,13.26
2022-10-18T01:47:31.149Z,13.29
2022-10-18T01:50:02.959Z,13.34
2022-10-18T01:52:29.874Z,13.37
2022-10-18T01:54:58.711Z,13.42
2022-10-18T01:57:39.216Z,13.48
2022-10-18T02:00:17.551Z,13.50
2022-10-18T02:03:10.939Z,13.52
2022-10-18T02:06:22.787Z,13.54
2022-10-18T02:09:00.764Z,13.55
2022-10-18T02:11:30.251Z,13.55
2022-10-18T02:14:03.090Z,13.56
2022-10-18T02:16:32.190Z,13.58
2022-10-18T02:19:02.929Z,13.60
2022-10-18T02:21:31.112Z,13.62
2022-10-18T02:24:00.912Z,13.63
2022-10-18T02:26:27.652Z,13.63
2022-10-18T02:28:55.338Z,13.66
2022-10-18T02:31:28.930Z,13.68
2022-10-18T02:34:02.789Z,13.67
2022-10-18T02:36:37.075Z,13.68
2022-10-18T02:39:11.722Z,13.67
2022-10-18T02:41:38.536Z,13.66
2022-10-18T02:44:05.112Z,13.68
2022-10-18T02:46:31.956Z,13.77
2022-10-18T02:48:58.534Z,13.85
2022-10-18T02:51:25.330Z,13.94
2022-10-18T02:53:51.940Z,14.12
2022-10-18T02:56:18.506Z,14.38
2022-10-18T02:58:45.124Z,14.55
2022-10-18T03:01:11.787Z,14.58
2022-10-18T03:03:38.388Z,14.54
2022-10-18T03:06:05.388Z,14.59
2022-10-18T03:08:31.972Z,14.55
2022-10-18T03:10:58.561Z,14.52
2022-10-18T03:13:25.352Z,14.53
2022-10-18T03:15:51.944Z,14.63
2022-10-18T03:18:18.585Z,14.54
2022-10-18T03:20:45.205Z,14.55
2022-10-18T03:23:11.894Z,14.55
2022-10-18T03:25:40.540Z,14.55
2022-10-18T03:28:09.449Z,14.52
2022-10-18T03:30:36.240Z,14.53
2022-10-18T03:33:02.807Z,14.54
2022-10-18T03:35:29.495Z,14.53
2022-10-18T03:37:56.086Z,14.50
2022-10-18T03:40:22.719Z,14.49
2022-10-18T03:42:49.327Z,14.51
2022-10-18T03:45:15.976Z,14.48
2022-10-18T03:47:42.604Z,14.45
2022-10-18T03:50:09.509Z,14.41
2022-10-18T03:52:36.120Z,14.37
2022-10-18T03:55:03.366Z,14.35
2022-10-18T03:57:29.953Z,14.34
2022-10-18T03:59:56.601Z,14.44
2022-10-18T04:02:23.164Z,14.50
2022-10-18T04:04:49.800Z,14.53
2022-10-18T04:07:16.433Z,14.51
2022-10-18T04:09:43.067Z,14.54
2022-10-18T04:12:09.906Z,14.46
2022-10-18T04:14:36.489Z,14.51
2022-10-18T04:17:04.824Z,14.50
2022-10-18T04:19:31.479Z,14.47
2022-10-18T04:21:58.076Z,14.39
2022-10-18T04:24:24.770Z,14.34
2022-10-18T04:26:51.628Z,14.31
2022-10-18T04:29:18.256Z,14.30
2022-10-18T04:31:44.924Z,14.25
2022-10-18T04:34:11.579Z,14.20
2022-10-18T04:36:38.253Z,14.19
2022-10-18T04:39:04.848Z,14.14
2022-10-18T04:41:31.435Z,14.12
2022-10-18T04:43:58.072Z,14.10
2022-10-18T04:46:24.678Z,14.06
2022-10-18T04:48:51.308Z,14.05
2022-10-18T04:51:17.882Z,14.03
2022-10-18T04:53:44.474Z,14.02
2022-10-18T04:56:11.079Z,14.05
2022-10-18T04:58:37.676Z,14.03
2022-10-18T05:01:07.776Z,14.03
2022-10-18T05:03:35.284Z,14.02
2022-10-18T05:06:03.176Z,14.01
2022-10-18T05:08:30.908Z,13.99
2022-10-18T05:10:57.918Z,13.98
2022-10-18T05:13:25.239Z,13.93
2022-10-18T05:15:52.181Z,13.92
2022-10-18T05:18:18.823Z,13.88
2022-10-18T05:20:45.419Z,13.88
2022-10-18T05:23:12.101Z,13.86
2022-10-18T05:25:40.277Z,13.86
2022-10-18T05:28:10.883Z,13.84
2022-10-18T05:30:47.949Z,13.82
2022-10-18T05:33:14.543Z,13.83
2022-10-18T05:35:41.128Z,13.80
2022-10-18T05:38:07.808Z,13.79
2022-10-18T05:40:34.584Z,13.78
2022-10-18T05:43:01.146Z,13.76
2022-10-18T05:45:27.789Z,13.78
2022-10-18T05:47:54.772Z,13.79
2022-10-18T05:50:21.335Z,13.76
2022-10-18T05:52:47.990Z,13.74
2022-10-18T05:55:14.564Z,13.75
2022-10-18T05:57:44.462Z,13.75
2022-10-18T06:00:18.556Z,13.72
2022-10-18T06:02:58.211Z,13.70
2022-10-18T06:05:32.671Z,13.67
2022-10-18T06:08:11.638Z,13.68
2022-10-18T06:10:46.924Z,13.65
2022-10-18T06:13:17.489Z,13.61
2022-10-18T06:15:53.671Z,13.66
2022-10-18T06:18:23.718Z,13.67
2022-10-18T06:20:56.764Z,13.67
2022-10-18T06:23:26.507Z,13.66
2022-10-18T06:25:57.909Z,13.64
2022-10-18T06:28:34.451Z,13.64
2022-10-18T06:31:05.041Z,13.66
2022-10-18T06:33:40.812Z,13.67
2022-10-18T06:36:22.601Z,13.72
2022-10-18T06:38:50.130Z,13.77
2022-10-18T06:41:22.379Z,13.82
2022-10-18T06:43:57.070Z,13.87
2022-10-18T06:46:28.975Z,13.92
2022-10-18T06:49:01.649Z,13.92
2022-10-18T06:51:31.731Z,13.90
2022-10-18T06:54:18.714Z,13.93
2022-10-18T06:56:52.437Z,13.89
2022-10-18T06:59:23.583Z,13.88
2022-10-18T07:02:11.095Z,13.94
2022-10-18T07:04:44.853Z,13.98
2022-10-18T07:07:33.764Z,13.97
2022-10-18T07:10:05.815Z,14.01
2022-10-18T07:12:32.897Z,14.07
2022-10-18T07:14:59.492Z,14.10
2022-10-18T07:17:27.392Z,14.12
2022-10-18T07:19:53.928Z,14.17
2022-10-18T07:22:20.540Z,14.21
2022-10-18T07:24:47.127Z,14.23
2022-10-18T07:27:13.712Z,14.27
2022-10-18T07:29:41.013Z,14.32
2022-10-18T07:32:07.652Z,14.46
2022-10-18T07:34:34.404Z,14.43
2022-10-18T07:37:02.322Z,14.42
2022-10-18T07:39:28.923Z,14.41
2022-10-18T07:41:55.549Z,14.46
2022-10-18T07:44:22.156Z,14.42
2022-10-18T07:46:48.824Z,14.43
2022-10-18T07:49:15.401Z,14.41
2022-10-18T07:51:41.999Z,14.44
2022-10-18T07:54:08.907Z,14.45
2022-10-18T07:56:35.576Z,14.48
2022-10-18T07:59:02.252Z,14.49
2022-10-18T08:01:28.923Z,14.50
2022-10-18T08:03:55.761Z,14.47
2022-10-18T08:06:23.612Z,14.46
2022-10-18T08:08:50.249Z,14.49
2022-10-18T08:11:23.104Z,14.49
2022-10-18T08:13:50.178Z,14.48
2022-10-18T08:16:22.808Z,14.49
2022-10-18T08:18:50.033Z,14.49
2022-10-18T08:21:18.359Z,14.48
2022-10-18T08:23:45.317Z,14.53
2022-10-18T08:26:15.267Z,14.52
2022-10-18T08:28:46.171Z,14.54
2022-10-18T08:31:20.968Z,14.56
2022-10-18T08:33:47.716Z,14.59
2022-10-18T08:36:16.636Z,14.60
2022-10-18T08:38:44.284Z,14.57
2022-10-18T08:41:20.009Z,14.56
2022-10-18T08:43:51.667Z,14.56
2022-10-18T08:46:18.357Z,14.51
2022-10-18T08:48:52.549Z,14.48
2022-10-18T08:51:29.725Z,14.52
2022-10-18T08:54:01.319Z,14.52
2022-10-18T08:56:27.988Z,14.52
2022-10-18T08:58:54.647Z,14.43
2022-10-18T09:01:36.397Z,14.50
2022-10-18T09:04:33.085Z,14.51
2022-10-18T09:07:25.931Z,14.48
2022-10-18T09:10:20.439Z,14.49
2022-10-18T09:13:37.736Z,14.49
2022-10-18T09:16:13.513Z,14.47
2022-10-18T09:18:43.001Z,14.45
2022-10-18T09:21:36.864Z,14.43
2022-10-18T09:24:03.381Z,14.42
2022-10-18T09:26:40.960Z,14.37
2022-10-18T09:29:29.389Z,14.35
2022-10-18T09:32:15.273Z,14.37
2022-10-18T09:35:01.087Z,14.33
2022-10-18T09:37:32.263Z,14.35
2022-10-18T09:40:18.147Z,14.35
2022-10-18T09:42:57.419Z,14.40
2022-10-18T09:45:30.150Z,14.47
2022-10-18T09:48:04.814Z,14.47
2022-10-18T09:50:45.509Z,14.56
2022-10-18T09:53:27.744Z,14.55
2022-10-18T09:55:59.097Z,14.56
2022-10-18T09:58:28.342Z,14.56
2022-10-18T10:00:55.658Z,14.56
2022-10-18T10:03:22.390Z,14.58
2022-10-18T10:06:03.219Z,14.56
2022-10-18T10:08:34.556Z,14.57
2022-10-18T10:11:01.386Z,14.59
2022-10-18T10:13:28.078Z,14.56
2022-10-18T10:16:01.360Z,14.59
2022-10-18T10:18:33.267Z,14.59
2022-10-18T10:21:05.961Z,14.57
2022-10-18T10:23:52.735Z,14.57
2022-10-18T10:26:30.730Z,14.54
2022-10-18T10:28:57.719Z,14.55
2022-10-18T10:31:24.291Z,14.53
2022-10-18T10:34:20.108Z,14.51
2022-10-18T10:36:52.444Z,14.54
2022-10-18T10:39:21.245Z,14.52
2022-10-18T10:42:00.464Z,14.58
2022-10-18T10:44:35.781Z,14.62
2022-10-18T10:47:02.769Z,14.55
2022-10-18T10:49:40.178Z,14.55
2022-10-18T10:52:09.086Z,14.57
2022-10-18T10:54:52.070Z,14.64
2022-10-18T10:57:28.053Z,14.68
2022-10-18T10:59:58.304Z,14.64
2022-10-18T11:02:35.993Z,14.69
2022-10-18T11:05:26.165Z,14.74
2022-10-18T11:07:56.711Z,14.78
2022-10-18T11:10:27.595Z,14.85
2022-10-18T11:13:24.640Z,14.84
2022-10-18T11:16:00.664Z,14.91
2022-10-18T11:18:33.401Z,14.91
2022-10-18T11:21:15.079Z,14.86
2022-10-18T11:23:43.894Z,14.87
2022-10-18T11:26:13.546Z,14.84
2022-10-18T11:29:08.378Z,14.85
2022-10-18T11:31:37.418Z,14.96
2022-10-18T11:34:18.817Z,14.96
2022-10-18T11:37:22.921Z,15.06
2022-10-18T11:39:58.790Z,15.20
2022-10-18T11:42:51.156Z,15.16
2022-10-18T11:45:17.641Z,15.25
2022-10-18T11:48:00.001Z,15.14
2022-10-18T11:50:41.788Z,15.23
2022-10-18T11:53:11.433Z,15.14
2022-10-18T11:56:07.334Z,15.20
2022-10-18T11:58:36.743Z,15.31
2022-10-18T12:01:27.687Z,15.42
2022-10-18T12:04:18.736Z,15.52
2022-10-18T12:06:48.832Z,15.44
2022-10-18T12:09:27.699Z,15.40
2022-10-18T12:12:01.383Z,15.37
2022-10-18T12:14:37.842Z,15.32
2022-10-18T12:17:51.010Z,15.25
2022-10-18T12:20:04.876Z,15.34
2022-10-18T12:22:56.240Z,15.45
2022-10-18T12:25:23.524Z,15.45
2022-10-18T12:30:48.649Z,15.61
2022-10-18T12:33:28.380Z,15.50
2022-10-18T12:36:06.634Z,15.55
2022-10-18T12:38:40.907Z,15.60
2022-10-18T12:41:07.769Z,15.63
2022-10-18T12:43:38.104Z,15.61
2022-10-18T12:46:13.079Z,15.54
2022-10-18T12:48:45.608Z,15.64
2022-10-18T12:51:18.155Z,15.62
2022-10-18T12:53:46.084Z,15.62
2022-10-18T12:56:27.997Z,15.59
2022-10-18T12:59:16.031Z,15.51
2022-10-18T13:01:52.050Z,15.40
2022-10-18T13:04:27.759Z,15.41
2022-10-18T13:06:57.440Z,15.49
2022-10-18T13:09:29.738Z,15.47
2022-10-18T13:12:19.363Z,15.39
2022-10-18T13:15:40.943Z,15.38
2022-10-18T13:18:33.618Z,15.41
2022-10-18T13:21:21.781Z,15.52
2022-10-18T13:24:26.232Z,15.51
2022-10-18T13:27:18.027Z,15.73
2022-10-18T13:30:44.264Z,15.67
2022-10-18T13:33:35.011Z,15.80
2022-10-18T13:36:04.105Z,15.83
2022-10-18T13:39:07.566Z,15.86
2022-10-18T13:41:43.440Z,15.87
2022-10-18T13:44:31.787Z,15.97
2022-10-18T13:47:06.073Z,16.07
2022-10-18T13:49:39.066Z,16.20
2022-10-18T13:52:36.020Z,16.19
2022-10-18T13:55:18.027Z,16.07
2022-10-18T13:58:03.173Z,15.96
2022-10-18T14:00:37.537Z,15.89
2022-10-18T14:03:55.678Z,15.90
2022-10-18T14:06:24.094Z,15.97
2022-10-18T14:09:06.336Z,16.06
2022-10-18T14:11:46.348Z,16.32
2022-10-18T14:14:36.805Z,16.48
2022-10-18T14:17:22.264Z,16.45
2022-10-18T14:19:58.564Z,16.51
2022-10-18T14:22:32.169Z,16.23
2022-10-18T14:24:59.341Z,15.92
2022-10-18T14:27:54.485Z,15.90
2022-10-18T14:30:31.520Z,15.89
2022-10-18T14:32:59.857Z,15.63
2022-10-18T14:35:41.484Z,15.51
2022-10-18T14:38:13.997Z,15.36
2022-10-18T14:40:41.371Z,15.50
2022-10-18T14:43:15.907Z,15.38
2022-10-18T14:45:43.026Z,15.30
2022-10-18T14:48:27.490Z,15.35
2022-10-18T14:51:06.751Z,15.31
2022-10-18T14:53:44.294Z,15.24
2022-10-18T14:56:23.133Z,15.18
2022-10-18T14:59:02.227Z,15.14
2022-10-18T15:01:32.339Z,15.23
2022-10-18T15:04:01.333Z,15.25
2022-10-18T15:06:29.236Z,15.32
2022-10-18T15:08:59.072Z,15.36
2022-10-18T15:11:29.253Z,15.47
2022-10-18T15:14:08.831Z,15.47
2022-10-18T15:16:38.802Z,15.45
2022-10-18T15:19:28.434Z,15.45
2022-10-18T15:22:13.656Z,15.49
2022-10-18T15:24:43.468Z,15.24
2022-10-18T15:27:31.595Z,15.03
2022-10-18T15:30:01.829Z,14.99
2022-10-18T15:32:30.844Z,14.94
2022-10-18T15:35:20.984Z,14.91
2022-10-18T15:37:50.705Z,14.84
2022-10-18T15:40:18.004Z,14.72
2022-10-18T15:42:45.073Z,14.56
2022-10-18T15:45:23.941Z,14.51
2022-10-18T15:48:27.469Z,14.39
2022-10-18T15:51:04.623Z,14.30
2022-10-18T15:53:32.970Z,14.21
2022-10-18T15:56:35.005Z,14.10
2022-10-18T15:59:05.215Z,13.95
2022-10-18T16:01:44.509Z,13.80
2022-10-18T16:04:23.140Z,13.69
2022-10-18T16:06:50.409Z,13.54
2022-10-18T16:09:19.629Z,13.46
2022-10-18T16:11:47.300Z,13.28
2022-10-18T16:14:13.966Z,13.19
2022-10-18T16:16:40.836Z,13.17
2022-10-18T16:19:07.975Z,13.05
2022-10-18T16:21:36.824Z,12.88
2022-10-18T16:24:04.264Z,12.77
2022-10-18T16:26:31.328Z,12.65
2022-10-18T16:28:58.747Z,12.56
2022-10-18T16:31:28.326Z,12.41
2022-10-18T16:33:56.330Z,12.34
2022-10-18T16:36:29.694Z,12.26
2022-10-18T16:38:57.968Z,12.15
2022-10-18T16:41:24.753Z,12.08
2022-10-18T16:43:51.434Z,12.02
2022-10-18T16:46:29.708Z,11.92
2022-10-18T16:48:57.353Z,11.84
2022-10-18T16:51:24.027Z,11.73
2022-10-18T16:53:50.651Z,11.68
2022-10-18T16:56:22.064Z,11.58
2022-10-18T16:58:49.580Z,11.49
2022-10-18T17:01:21.259Z,11.44
2022-10-18T17:03:48.855Z,11.40
2022-10-18T17:06:24.965Z,11.31
2022-10-18T17:08:53.023Z,11.28
2022-10-18T17:11:21.231Z,11.16
2022-10-18T17:13:48.128Z,11.07
2022-10-18T17:16:25.431Z,11.05
2022-10-18T17:18:52.244Z,10.99
2022-10-18T17:21:18.969Z,10.93
2022-10-18T17:23:45.619Z,10.89
2022-10-18T17:26:29.698Z,10.77
2022-10-18T17:29:03.149Z,10.76
2022-10-18T17:31:31.152Z,10.71
2022-10-18T17:33:59.847Z,10.68
2022-10-18T17:36:26.731Z,10.62
2022-10-18T17:38:54.726Z,10.59
2022-10-18T17:41:21.837Z,10.45
2022-10-18T17:43:48.886Z,10.45
2022-10-18T17:46:16.640Z,10.43
2022-10-18T17:48:43.523Z,10.40
2022-10-18T17:51:12.474Z,10.32
2022-10-18T17:53:54.862Z,10.25
2022-10-18T17:56:30.772Z,10.25
2022-10-18T17:58:57.749Z,10.22
2022-10-18T18:01:24.365Z,10.15
2022-10-18T18:03:55.932Z,10.12
2022-10-18T18:06:31.390Z,10.06
2022-10-18T18:08:59.760Z,10.04
2022-10-18T18:11:28.481Z,10.03
2022-10-18T18:13:56.123Z,9.96
2022-10-18T18:16:28.227Z,9.94
2022-10-18T18:18:57.389Z,9.92
2022-10-18T18:21:30.112Z,9.81
2022-10-18T18:23:57.254Z,9.77
2022-10-18T18:26:29.089Z,9.69
2022-10-18T18:28:55.902Z,9.71
2022-10-18T18:31:24.341Z,9.66
2022-10-18T18:33:52.915Z,9.61
2022-10-18T18:36:20.827Z,9.59
2022-10-18T18:38:48.422Z,9.54
2022-10-18T18:41:18.558Z,9.49
2022-10-18T18:44:06.179Z,9.56
2022-10-18T18:46:41.538Z,9.52
2022-10-18T18:49:08.686Z,9.47
2022-10-18T18:51:38.260Z,9.41
2022-10-18T18:54:05.276Z,9.36
2022-10-18T18:56:35.147Z,9.31
2022-10-18T18:59:02.188Z,9.34
2022-10-18T19:01:31.693Z,9.33
2022-10-18T19:04:01.699Z,9.26
2022-10-18T19:06:50.498Z,9.28
2022-10-18T19:09:26.207Z,9.29
2022-10-18T19:11:59.256Z,9.21
2022-10-18T19:14:32.498Z,9.15
2022-10-18T19:17:01.182Z,9.21
2022-10-18T19:19:32.029Z,9.14
2022-10-18T19:22:08.393Z,9.14
2022-10-18T19:24:35.530Z,9.15
2022-10-18T19:27:17.223Z,9.12
2022-10-18T19:29:53.174Z,9.07
2022-10-18T19:32:24.381Z,9.05
2022-10-18T19:34:58.015Z,9.04
2022-10-18T19:37:31.504Z,8.91
2022-10-18T19:40:10.248Z,8.95
2022-10-18T19:42:40.903Z,8.97
2022-10-18T19:45:19.096Z,8.92
2022-10-18T19:47:45.803Z,8.92
2022-10-18T19:50:18.206Z,8.88
2022-10-18T19:52:45.614Z,8.81
2022-10-18T19:55:15.820Z,8.85
2022-10-18T19:57:43.385Z,8.86
2022-10-18T20:00:12.453Z,8.85
2022-10-18T20:02:56.152Z,8.85
2022-10-18T20:05:22.820Z,8.82
2022-10-18T20:07:49.611Z,8.88
2022-10-18T20:10:19.418Z,8.89
2022-10-18T20:12:46.254Z,8.86
2022-10-18T20:15:13.103Z,8.84
2022-10-18T20:17:43.362Z,8.85
2022-10-18T20:20:10.741Z,8.79
2022-10-18T20:22:37.447Z,8.77
2022-10-18T20:25:04.394Z,8.66
2022-10-18T20:27:45.873Z,8.58
2022-10-18T20:30:12.653Z,8.62
2022-10-18T20:32:42.862Z,8.56
2022-10-18T20:35:09.773Z,8.48
2022-10-18T20:37:51.748Z,8.55
2022-10-18T20:40:19.322Z,8.50
2022-10-18T20:42:51.522Z,8.47
2022-10-18T20:45:23.561Z,8.47
2022-10-18T20:47:51.146Z,8.45
2022-10-18T20:50:26.407Z,8.41
2022-10-18T20:52:56.773Z,8.32
2022-10-18T20:55:25.813Z,8.24
2022-10-18T20:57:55.589Z,8.22
2022-10-18T21:00:27.342Z,8.23
2022-10-18T21:03:09.296Z,8.13
2022-10-18T21:05:39.278Z,8.12
2022-10-18T21:08:28.853Z,8.10
2022-10-18T21:11:01.537Z,8.01
2022-10-18T21:13:34.555Z,7.96
2022-10-18T21:16:12.436Z,7.98
2022-10-18T21:18:40.473Z,7.96
2022-10-18T21:21:27.593Z,7.95
2022-10-18T21:24:01.285Z,7.87
2022-10-18T21:26:40.025Z,7.82
2022-10-18T21:29:11.849Z,7.82
2022-10-18T21:32:03.637Z,7.79
2022-10-18T21:34:31.294Z,7.69
2022-10-18T21:37:01.405Z,7.71
2022-10-18T21:39:40.095Z,7.73
2022-10-18T21:42:21.284Z,7.71
2022-10-18T21:44:58.020Z,7.71
2022-10-18T21:47:32.494Z,7.73
2022-10-18T21:50:09.053Z,7.69
2022-10-18T21:52:39.433Z,7.71
2022-10-18T21:55:07.782Z,7.69
2022-10-18T21:57:43.598Z,7.69
2022-10-18T22:00:12.105Z,7.63
2022-10-18T22:02:40.082Z,7.58
2022-10-18T22:05:12.743Z,7.58
2022-10-18T22:07:40.387Z,7.47
2022-10-18T22:10:11.159Z,7.50
2022-10-18T22:12:44.928Z,7.45
2022-10-18T22:15:15.074Z,7.40
2022-10-18T22:17:47.923Z,7.39
2022-10-18T22:20:32.522Z,7.41
2022-10-18T22:22:59.165Z,7.40
2022-10-18T22:25:28.396Z,7.33
2022-10-18T22:28:09.122Z,7.37
2022-10-18T22:30:44.443Z,7.30
2022-10-18T22:33:22.490Z,7.37
2022-10-18T22:36:05.085Z,7.47
2022-10-18T22:38:35.469Z,7.55
2022-10-18T22:41:25.401Z,7.64
2022-10-18T22:43:57.308Z,7.73
2022-10-18T22:46:30.502Z,7.84
2022-10-18T22:49:05.192Z,7.83
2022-10-18T22:51:31.940Z,7.94
2022-10-18T22:53:58.695Z,8.03
2022-10-18T22:56:25.431Z,8.09
2022-10-18T22:58:52.879Z,8.21
2022-10-18T23:01:22.204Z,8.29
2022-10-18T23:03:56.124Z,8.34
2022-10-18T23:06:25.853Z,8.42
2022-10-18T23:08:53.976Z,8.41
2022-10-18T23:11:21.555Z,8.47
2022-10-18T23:13:48.786Z,8.48
2022-10-18T23:16:15.704Z,8.49
2022-10-18T23:18:42.518Z,8.52
2022-10-18T23:21:12.466Z,8.54
2022-10-18T23:23:41.716Z,8.57
2022-10-18T23:26:14.049Z,8.59
2022-10-18T23:28:42.244Z,8.70
2022-10-18T23:31:14.154Z,8.74
2022-10-18T23:33:41.510Z,8.79
2022-10-18T23:36:09.150Z,8.84
2022-10-18T23:38:37.141Z,8.90
2022-10-18T23:41:04.736Z,8.96
2022-10-18T23:43:31.572Z,8.99
2022-10-18T23:45:58.213Z,9.04
2022-10-18T23:48:24.894Z,9.06
2022-10-18T23:50:51.959Z,9.08
2022-10-18T23:53:22.120Z,9.10
2022-10-18T23:55:59.268Z,9.12
2022-10-18T23:58:27.597Z,9.18
